Grace — PBCR — position and weather

sailwx.info

Track history (hours):
 
Tides and Currents Weather Stations Pressure Air Temp Water Temp Dewpoint Dewpoint Depression Visibility Wind Speed Wind Dir Waves Ship Positions

Grace

Last reported at 2014-Sep-16 16:04 UTC. Time now 2014-Sep-16 17:31 UTC.
Position N 64°52' E 011°14'.

Length 48 m; draft 2.8 m.

Type: Ship. MMSI: 244657000.

Date/timePositionNaut miles runAvg speedWind from/ knotsBaromVisibWave heightAir tempDewpointWater temp
2014-Sep-16 16:04N 64°52' E 011°14'0 0.0
2014-Sep-16 15:31N 64°52' E 011°14'0 0.0
2014-Sep-16 14:31N 64°52' E 011°14'0 0.0
2014-Sep-16 13:31N 64°52' E 011°14'0 0.0
2014-Sep-16 12:28N 64°52' E 011°14'0 0.0
2014-Sep-16 11:31N 64°52' E 011°14'0 0.0
2014-Sep-16 10:31N 64°52' E 011°14'0 0.0
2014-Sep-16 09:31N 64°52' E 011°14'0 0.0
2014-Sep-16 08:31N 64°52' E 011°14'0 0.0
2014-Sep-16 07:31N 64°52' E 011°14'0 0.0
2014-Sep-16 06:31N 64°52' E 011°14'0 0.0
2014-Sep-16 05:31N 64°52' E 011°14'0 0.0
2014-Sep-16 04:31N 64°52' E 011°14'0 0.0
2014-Sep-16 03:31N 64°52' E 011°14'0 0.0
2014-Sep-16 02:31N 64°52' E 011°14'0 0.0
2014-Sep-16 01:31N 64°52' E 011°14'0 0.0
2014-Sep-16 00:31N 64°52' E 011°14'0 0.0
2014-Sep-15 23:31N 64°52' E 011°14'0 0.0
2014-Sep-15 22:31N 64°52' E 011°14'0 0.0
2014-Sep-15 21:31N 64°52' E 011°14'0 0.0
2014-Sep-15 20:31N 64°52' E 011°14'0 0.0
2014-Sep-15 19:31N 64°52' E 011°14'0 0.0
2014-Sep-15 18:31N 64°52' E 011°14'0 0.0
2014-Sep-15 17:28N 64°52' E 011°14'0 0.0
2014-Sep-15 16:31N 64°52' E 011°14'0 0.0
2014-Sep-15 15:31N 64°52' E 011°14'0 0.0
2014-Sep-15 14:31N 64°52' E 011°14'0 0.0
2014-Sep-15 13:31N 64°52' E 011°14'0 0.0
2014-Sep-15 12:31N 64°52' E 011°14'0 0.0
2014-Sep-15 11:31N 64°52' E 011°14'0 0.0
2014-Sep-15 10:31N 64°52' E 011°14'0 0.0
2014-Sep-15 09:31N 64°52' E 011°14'0 0.0
2014-Sep-15 08:31N 64°52' E 011°14'0 0.0
2014-Sep-15 07:31N 64°52' E 011°14'0 0.0
2014-Sep-15 06:31N 64°52' E 011°14'0 0.0
2014-Sep-15 05:31N 64°52' E 011°14'0 0.0
2014-Sep-15 04:31N 64°52' E 011°14'0 0.0
2014-Sep-15 03:31N 64°52' E 011°14'0 0.0
2014-Sep-15 02:31N 64°52' E 011°14'0 0.0
2014-Sep-15 01:31N 64°52' E 011°14'0 0.0
2014-Sep-15 00:31N 64°52' E 011°14'0 0.0
2014-Sep-14 23:31N 64°52' E 011°14'0 0.0
2014-Sep-14 22:31N 64°52' E 011°14'0 0.0
2014-Sep-14 21:31N 64°52' E 011°14'0 0.0
2014-Sep-14 20:25N 64°52' E 011°14'0 0.0
2014-Sep-14 19:28N 64°52' E 011°14'0 0.0
2014-Sep-14 18:31N 64°52' E 011°14'0 0.0
2014-Sep-14 17:31N 64°52' E 011°14'1 0.6
2014-Sep-14 15:33N 64°52' E 011°16'98 3.4
2014-Sep-13 10:27N 66°21' E 012°58'64 2.8
2014-Sep-12 11:33N 67°17' E 014°18'2 2.0
2014-Sep-12 10:33N 67°15' E 014°16'8 8.0
2014-Sep-12 09:33N 67°14' E 014°36'5 5.1
2014-Sep-12 08:33N 67°15' E 014°23'2 2.4
2014-Sep-12 07:33N 67°17' E 014°23'0 0.0
2014-Sep-12 06:30N 67°17' E 014°23'0 0.0
2014-Sep-12 05:30N 67°17' E 014°23'0 0.0
2014-Sep-12 04:33N 67°17' E 014°23'0 0.0
2014-Sep-12 03:33N 67°17' E 014°23'0 0.0
2014-Sep-12 02:33N 67°17' E 014°23'0 0.0
2014-Sep-12 01:33N 67°17' E 014°23'0 0.0
2014-Sep-12 00:33N 67°17' E 014°23'0 0.0
2014-Sep-11 23:30N 67°17' E 014°23'0 0.0
2014-Sep-11 22:30N 67°17' E 014°23'0 0.0
2014-Sep-11 21:33N 67°17' E 014°23'0 0.0
2014-Sep-11 20:33N 67°17' E 014°23'0 0.0
2014-Sep-11 19:33N 67°17' E 014°23'0 0.0
2014-Sep-11 18:33N 67°17' E 014°23'0 0.0
2014-Sep-11 17:33N 67°17' E 014°23'0 0.0
2014-Sep-11 16:33N 67°17' E 014°23'0 0.0
2014-Sep-11 15:33N 67°17' E 014°23'0 0.0
2014-Sep-11 14:33N 67°17' E 014°23'0 0.0
2014-Sep-11 13:33N 67°17' E 014°23'0 0.0
2014-Sep-11 12:30N 67°17' E 014°23'0 0.0
2014-Sep-11 11:33N 67°17' E 014°23'0 0.0
2014-Sep-11 10:33N 67°17' E 014°23'0 0.0
2014-Sep-11 09:33N 67°17' E 014°23'0 0.0
2014-Sep-11 08:33N 67°17' E 014°23'0 0.0
2014-Sep-11 07:33N 67°17' E 014°23'0 0.0
2014-Sep-11 06:33N 67°17' E 014°23'0 0.0
2014-Sep-11 05:33N 67°17' E 014°23'0 0.0
2014-Sep-11 04:33N 67°17' E 014°23'0 0.0
2014-Sep-11 03:33N 67°17' E 014°23'0 0.0
2014-Sep-11 02:33N 67°17' E 014°23'0 0.0
2014-Sep-11 01:33N 67°17' E 014°23'0 0.0
2014-Sep-11 00:33N 67°17' E 014°23'0 0.0
2014-Sep-10 23:33N 67°17' E 014°23'0 0.0
2014-Sep-10 22:33N 67°17' E 014°23'0 0.0
2014-Sep-10 21:33N 67°17' E 014°23'0 0.0
2014-Sep-10 20:33N 67°17' E 014°23'0 0.0
2014-Sep-10 19:33N 67°17' E 014°23'0 0.0
2014-Sep-10 18:33N 67°17' E 014°23'0 0.0
2014-Sep-10 17:33N 67°17' E 014°23'0 0.0
2014-Sep-10 16:33N 67°17' E 014°23'0 0.0
2014-Sep-10 15:33N 67°17' E 014°23'0 0.0
2014-Sep-10 14:33N 67°17' E 014°23'0 0.0
2014-Sep-10 13:33N 67°17' E 014°23'0 0.0
2014-Sep-10 12:33N 67°17' E 014°23'0 0.0
2014-Sep-10 11:33N 67°17' E 014°23'0 0.0
2014-Sep-10 10:30N 67°17' E 014°23'0 0.0
2014-Sep-10 09:33N 67°17' E 014°23'0 0.0
2014-Sep-10 08:33N 67°17' E 014°23'0 0.0
2014-Sep-10 07:27N 67°17' E 014°23'0 0.0
2014-Sep-10 06:33N 67°17' E 014°23'0 0.0
2014-Sep-10 05:33N 67°17' E 014°23'0 0.0
2014-Sep-10 04:33N 67°17' E 014°23'0 0.0
2014-Sep-10 03:33N 67°17' E 014°23'0 0.0
2014-Sep-10 02:33N 67°17' E 014°23'0 0.0
2014-Sep-10 01:33N 67°17' E 014°23'0 0.0
2014-Sep-10 00:33N 67°17' E 014°23'0 0.0
2014-Sep-09 23:33N 67°17' E 014°23'0 0.0
2014-Sep-09 22:33N 67°17' E 014°23'0 0.0
2014-Sep-09 21:33N 67°17' E 014°23'0 0.0
2014-Sep-09 20:33N 67°17' E 014°23'0 0.0
2014-Sep-09 19:33N 67°17' E 014°23'0 0.0
2014-Sep-09 18:33N 67°17' E 014°23'0 0.0
2014-Sep-09 17:33N 67°17' E 014°23'0 0.0
2014-Sep-09 16:30N 67°17' E 014°23'0 0.0
2014-Sep-09 15:33N 67°17' E 014°23'0 0.0
2014-Sep-09 14:33N 67°17' E 014°23'0 0.0
2014-Sep-09 13:33N 67°17' E 014°23'0 0.0
2014-Sep-09 12:30N 67°17' E 014°23'0 0.0
2014-Sep-09 11:33N 67°17' E 014°23'0 0.0
2014-Sep-09 10:33N 67°17' E 014°23'0 0.0
2014-Sep-09 09:33N 67°17' E 014°23'0 0.0
2014-Sep-09 08:33N 67°17' E 014°23'0 0.0
2014-Sep-09 07:33N 67°17' E 014°23'0 0.0
2014-Sep-09 06:33N 67°17' E 014°23'0 0.0
2014-Sep-09 05:33N 67°17' E 014°23'0 0.0
2014-Sep-09 04:30N 67°17' E 014°23'0 0.0
2014-Sep-09 03:33N 67°17' E 014°23'0 0.0
2014-Sep-09 02:33N 67°17' E 014°23'0 0.0
2014-Sep-09 01:33N 67°17' E 014°23'0 0.0
2014-Sep-09 00:33N 67°17' E 014°23'0 0.0
2014-Sep-08 23:33N 67°17' E 014°23'0 0.0
2014-Sep-08 22:33N 67°17' E 014°23'0 0.0
2014-Sep-08 21:33N 67°17' E 014°23'0 0.0
2014-Sep-08 20:33N 67°17' E 014°23'0 0.0
2014-Sep-08 19:33N 67°17' E 014°23'0 0.0
2014-Sep-08 18:33N 67°17' E 014°23'0 0.0
2014-Sep-08 17:33N 67°17' E 014°23'0 0.0
2014-Sep-08 16:33N 67°17' E 014°23'0 0.0
2014-Sep-08 15:33N 67°17' E 014°23'0 0.0
2014-Sep-08 14:33N 67°17' E 014°23'0 0.0
2014-Sep-08 13:33N 67°17' E 014°23'0 0.0
2014-Sep-08 12:33N 67°17' E 014°23'0 0.0
2014-Sep-08 11:33N 67°17' E 014°23'0 0.0
2014-Sep-08 10:33N 67°17' E 014°23'0 0.0
2014-Sep-08 09:33N 67°17' E 014°23'0 0.0
2014-Sep-08 08:33N 67°17' E 014°23'0 0.0
2014-Sep-08 07:33N 67°17' E 014°23'0 0.0
2014-Sep-08 06:33N 67°17' E 014°23'0 0.0
2014-Sep-08 05:33N 67°17' E 014°23'0 0.0
2014-Sep-08 04:33N 67°17' E 014°23'0 0.0
2014-Sep-08 03:30N 67°17' E 014°23'0 0.0
2014-Sep-08 02:33N 67°17' E 014°23'0 0.0
2014-Sep-08 01:33N 67°17' E 014°23'0 0.0
2014-Sep-08 00:33N 67°17' E 014°23'0 0.0
2014-Sep-07 23:33N 67°17' E 014°23'0 0.0
2014-Sep-07 21:33N 67°17' E 014°23'0 0.0
2014-Sep-07 20:33N 67°17' E 014°23'0 0.0
2014-Sep-07 19:33N 67°17' E 014°23'0 0.0
2014-Sep-07 18:33N 67°17' E 014°23'0 0.0
2014-Sep-07 17:33N 67°17' E 014°23'0 0.0
2014-Sep-07 16:33N 67°17' E 014°23'0 0.0
2014-Sep-07 15:33N 67°17' E 014°23'0 0.0
2014-Sep-07 14:33N 67°17' E 014°23'0 0.0
2014-Sep-07 13:33N 67°17' E 014°23'0 0.0
2014-Sep-07 12:33N 67°17' E 014°23'0 0.0
2014-Sep-07 11:33N 67°17' E 014°23'0 0.0
2014-Sep-07 10:33N 67°17' E 014°23'0 0.0
2014-Sep-07 09:33N 67°17' E 014°23'0 0.0
2014-Sep-07 08:33N 67°17' E 014°23'0 0.0
2014-Sep-07 07:33N 67°17' E 014°23'0 0.0
2014-Sep-07 06:33N 67°17' E 014°23'0 0.0
2014-Sep-07 05:33N 67°17' E 014°23'0 0.0
2014-Sep-07 04:33N 67°17' E 014°23'0 0.0
2014-Sep-07 03:30N 67°17' E 014°23'0 0.0
2014-Sep-07 02:33N 67°17' E 014°23'0 0.0
2014-Sep-07 01:33N 67°17' E 014°23'0 0.0
2014-Sep-07 00:33N 67°17' E 014°23'0 0.0
2014-Sep-06 23:33N 67°17' E 014°23'0 0.0
2014-Sep-06 22:30N 67°17' E 014°23'0 0.0
2014-Sep-06 21:33N 67°17' E 014°23'0 0.0
2014-Sep-06 20:33N 67°17' E 014°23'0 0.0
2014-Sep-06 19:33N 67°17' E 014°23'0 0.0
2014-Sep-06 18:33N 67°17' E 014°23'0 0.0
2014-Sep-06 17:33N 67°17' E 014°23'0 0.0
2014-Sep-06 16:33N 67°17' E 014°23'  
Track history (hours):
 
Tides and Currents Weather Stations Pressure Air Temp Water Temp Dewpoint Dewpoint Depression Visibility Wind Speed Wind Dir Waves Ship Positions

Grace

Last reported at 2014-Sep-16 16:04 UTC. Time now 2014-Sep-16 17:31 UTC.
Position N 64°52' E 011°14'.

Length 48 m; draft 2.8 m.

Type: Ship. MMSI: 244657000.

Date/timePositionNaut miles runAvg speedWind from/ knotsBaromVisibWave heightAir tempDewpointWater temp
2014-Sep-16 16:04N 64°52' E 011°14'0 0.0
2014-Sep-16 15:31N 64°52' E 011°14'0 0.0
2014-Sep-16 14:31N 64°52' E 011°14'0 0.0
2014-Sep-16 13:31N 64°52' E 011°14'0 0.0
2014-Sep-16 12:28N 64°52' E 011°14'0 0.0
2014-Sep-16 11:31N 64°52' E 011°14'0 0.0
2014-Sep-16 10:31N 64°52' E 011°14'0 0.0
2014-Sep-16 09:31N 64°52' E 011°14'0 0.0
2014-Sep-16 08:31N 64°52' E 011°14'0 0.0
2014-Sep-16 07:31N 64°52' E 011°14'0 0.0
2014-Sep-16 06:31N 64°52' E 011°14'0 0.0
2014-Sep-16 05:31N 64°52' E 011°14'0 0.0
2014-Sep-16 04:31N 64°52' E 011°14'0 0.0
2014-Sep-16 03:31N 64°52' E 011°14'0 0.0
2014-Sep-16 02:31N 64°52' E 011°14'0 0.0
2014-Sep-16 01:31N 64°52' E 011°14'0 0.0
2014-Sep-16 00:31N 64°52' E 011°14'0 0.0
2014-Sep-15 23:31N 64°52' E 011°14'0 0.0
2014-Sep-15 22:31N 64°52' E 011°14'0 0.0
2014-Sep-15 21:31N 64°52' E 011°14'0 0.0
2014-Sep-15 20:31N 64°52' E 011°14'0 0.0
2014-Sep-15 19:31N 64°52' E 011°14'0 0.0
2014-Sep-15 18:31N 64°52' E 011°14'0 0.0
2014-Sep-15 17:28N 64°52' E 011°14'0 0.0
2014-Sep-15 16:31N 64°52' E 011°14'0 0.0
2014-Sep-15 15:31N 64°52' E 011°14'0 0.0
2014-Sep-15 14:31N 64°52' E 011°14'0 0.0
2014-Sep-15 13:31N 64°52' E 011°14'0 0.0
2014-Sep-15 12:31N 64°52' E 011°14'0 0.0
2014-Sep-15 11:31N 64°52' E 011°14'0 0.0
2014-Sep-15 10:31N 64°52' E 011°14'0 0.0
2014-Sep-15 09:31N 64°52' E 011°14'0 0.0
2014-Sep-15 08:31N 64°52' E 011°14'0 0.0
2014-Sep-15 07:31N 64°52' E 011°14'0 0.0
2014-Sep-15 06:31N 64°52' E 011°14'0 0.0
2014-Sep-15 05:31N 64°52' E 011°14'0 0.0
2014-Sep-15 04:31N 64°52' E 011°14'0 0.0
2014-Sep-15 03:31N 64°52' E 011°14'0 0.0
2014-Sep-15 02:31N 64°52' E 011°14'0 0.0
2014-Sep-15 01:31N 64°52' E 011°14'0 0.0
2014-Sep-15 00:31N 64°52' E 011°14'0 0.0
2014-Sep-14 23:31N 64°52' E 011°14'0 0.0
2014-Sep-14 22:31N 64°52' E 011°14'0 0.0
2014-Sep-14 21:31N 64°52' E 011°14'0 0.0
2014-Sep-14 20:25N 64°52' E 011°14'0 0.0
2014-Sep-14 19:28N 64°52' E 011°14'0 0.0
2014-Sep-14 18:31N 64°52' E 011°14'0 0.0
2014-Sep-14 17:31N 64°52' E 011°14'1 0.6
2014-Sep-14 15:33N 64°52' E 011°16'98 3.4
2014-Sep-13 10:27N 66°21' E 012°58'64 2.8
2014-Sep-12 11:33N 67°17' E 014°18'2 2.0
2014-Sep-12 10:33N 67°15' E 014°16'8 8.0
2014-Sep-12 09:33N 67°14' E 014°36'5 5.1
2014-Sep-12 08:33N 67°15' E 014°23'2 2.4
2014-Sep-12 07:33N 67°17' E 014°23'0 0.0
2014-Sep-12 06:30N 67°17' E 014°23'0 0.0
2014-Sep-12 05:30N 67°17' E 014°23'0 0.0
2014-Sep-12 04:33N 67°17' E 014°23'0 0.0
2014-Sep-12 03:33N 67°17' E 014°23'0 0.0
2014-Sep-12 02:33N 67°17' E 014°23'0 0.0
2014-Sep-12 01:33N 67°17' E 014°23'0 0.0
2014-Sep-12 00:33N 67°17' E 014°23'0 0.0
2014-Sep-11 23:30N 67°17' E 014°23'0 0.0
2014-Sep-11 22:30N 67°17' E 014°23'0 0.0
2014-Sep-11 21:33N 67°17' E 014°23'0 0.0
2014-Sep-11 20:33N 67°17' E 014°23'0 0.0
2014-Sep-11 19:33N 67°17' E 014°23'0 0.0
2014-Sep-11 18:33N 67°17' E 014°23'0 0.0
2014-Sep-11 17:33N 67°17' E 014°23'0 0.0
2014-Sep-11 16:33N 67°17' E 014°23'0 0.0
2014-Sep-11 15:33N 67°17' E 014°23'0 0.0
2014-Sep-11 14:33N 67°17' E 014°23'0 0.0
2014-Sep-11 13:33N 67°17' E 014°23'0 0.0
2014-Sep-11 12:30N 67°17' E 014°23'0 0.0
2014-Sep-11 11:33N 67°17' E 014°23'0 0.0
2014-Sep-11 10:33N 67°17' E 014°23'0 0.0
2014-Sep-11 09:33N 67°17' E 014°23'0 0.0
2014-Sep-11 08:33N 67°17' E 014°23'0 0.0
2014-Sep-11 07:33N 67°17' E 014°23'0 0.0
2014-Sep-11 06:33N 67°17' E 014°23'0 0.0
2014-Sep-11 05:33N 67°17' E 014°23'0 0.0
2014-Sep-11 04:33N 67°17' E 014°23'0 0.0
2014-Sep-11 03:33N 67°17' E 014°23'0 0.0
2014-Sep-11 02:33N 67°17' E 014°23'0 0.0
2014-Sep-11 01:33N 67°17' E 014°23'0 0.0
2014-Sep-11 00:33N 67°17' E 014°23'0 0.0
2014-Sep-10 23:33N 67°17' E 014°23'0 0.0
2014-Sep-10 22:33N 67°17' E 014°23'0 0.0
2014-Sep-10 21:33N 67°17' E 014°23'0 0.0
2014-Sep-10 20:33N 67°17' E 014°23'0 0.0
2014-Sep-10 19:33N 67°17' E 014°23'0 0.0
2014-Sep-10 18:33N 67°17' E 014°23'0 0.0
2014-Sep-10 17:33N 67°17' E 014°23'0 0.0
2014-Sep-10 16:33N 67°17' E 014°23'0 0.0
2014-Sep-10 15:33N 67°17' E 014°23'0 0.0
2014-Sep-10 14:33N 67°17' E 014°23'0 0.0
2014-Sep-10 13:33N 67°17' E 014°23'0 0.0
2014-Sep-10 12:33N 67°17' E 014°23'0 0.0
2014-Sep-10 11:33N 67°17' E 014°23'0 0.0
2014-Sep-10 10:30N 67°17' E 014°23'0 0.0
2014-Sep-10 09:33N 67°17' E 014°23'0 0.0
2014-Sep-10 08:33N 67°17' E 014°23'0 0.0
2014-Sep-10 07:27N 67°17' E 014°23'0 0.0
2014-Sep-10 06:33N 67°17' E 014°23'0 0.0
2014-Sep-10 05:33N 67°17' E 014°23'0 0.0
2014-Sep-10 04:33N 67°17' E 014°23'0 0.0
2014-Sep-10 03:33N 67°17' E 014°23'0 0.0
2014-Sep-10 02:33N 67°17' E 014°23'0 0.0
2014-Sep-10 01:33N 67°17' E 014°23'0 0.0
2014-Sep-10 00:33N 67°17' E 014°23'0 0.0
2014-Sep-09 23:33N 67°17' E 014°23'0 0.0
2014-Sep-09 22:33N 67°17' E 014°23'0 0.0
2014-Sep-09 21:33N 67°17' E 014°23'0 0.0
2014-Sep-09 20:33N 67°17' E 014°23'0 0.0
2014-Sep-09 19:33N 67°17' E 014°23'0 0.0
2014-Sep-09 18:33N 67°17' E 014°23'0 0.0
2014-Sep-09 17:33N 67°17' E 014°23'0 0.0
2014-Sep-09 16:30N 67°17' E 014°23'0 0.0
2014-Sep-09 15:33N 67°17' E 014°23'0 0.0
2014-Sep-09 14:33N 67°17' E 014°23'0 0.0
2014-Sep-09 13:33N 67°17' E 014°23'0 0.0
2014-Sep-09 12:30N 67°17' E 014°23'0 0.0
2014-Sep-09 11:33N 67°17' E 014°23'0 0.0
2014-Sep-09 10:33N 67°17' E 014°23'0 0.0
2014-Sep-09 09:33N 67°17' E 014°23'0 0.0
2014-Sep-09 08:33N 67°17' E 014°23'0 0.0
2014-Sep-09 07:33N 67°17' E 014°23'0 0.0
2014-Sep-09 06:33N 67°17' E 014°23'0 0.0
2014-Sep-09 05:33N 67°17' E 014°23'0 0.0
2014-Sep-09 04:30N 67°17' E 014°23'0 0.0
2014-Sep-09 03:33N 67°17' E 014°23'0 0.0
2014-Sep-09 02:33N 67°17' E 014°23'0 0.0
2014-Sep-09 01:33N 67°17' E 014°23'0 0.0
2014-Sep-09 00:33N 67°17' E 014°23'0 0.0
2014-Sep-08 23:33N 67°17' E 014°23'0 0.0
2014-Sep-08 22:33N 67°17' E 014°23'0 0.0
2014-Sep-08 21:33N 67°17' E 014°23'0 0.0
2014-Sep-08 20:33N 67°17' E 014°23'0 0.0
2014-Sep-08 19:33N 67°17' E 014°23'0 0.0
2014-Sep-08 18:33N 67°17' E 014°23'0 0.0
2014-Sep-08 17:33N 67°17' E 014°23'0 0.0
2014-Sep-08 16:33N 67°17' E 014°23'0 0.0
2014-Sep-08 15:33N 67°17' E 014°23'0 0.0
2014-Sep-08 14:33N 67°17' E 014°23'0 0.0
2014-Sep-08 13:33N 67°17' E 014°23'0 0.0
2014-Sep-08 12:33N 67°17' E 014°23'0 0.0
2014-Sep-08 11:33N 67°17' E 014°23'0 0.0
2014-Sep-08 10:33N 67°17' E 014°23'0 0.0
2014-Sep-08 09:33N 67°17' E 014°23'0 0.0
2014-Sep-08 08:33N 67°17' E 014°23'0 0.0
2014-Sep-08 07:33N 67°17' E 014°23'0 0.0
2014-Sep-08 06:33N 67°17' E 014°23'0 0.0
2014-Sep-08 05:33N 67°17' E 014°23'0 0.0
2014-Sep-08 04:33N 67°17' E 014°23'0 0.0
2014-Sep-08 03:30N 67°17' E 014°23'0 0.0
2014-Sep-08 02:33N 67°17' E 014°23'0 0.0
2014-Sep-08 01:33N 67°17' E 014°23'0 0.0
2014-Sep-08 00:33N 67°17' E 014°23'0 0.0
2014-Sep-07 23:33N 67°17' E 014°23'0 0.0
2014-Sep-07 21:33N 67°17' E 014°23'0 0.0
2014-Sep-07 20:33N 67°17' E 014°23'0 0.0
2014-Sep-07 19:33N 67°17' E 014°23'0 0.0
2014-Sep-07 18:33N 67°17' E 014°23'0 0.0
2014-Sep-07 17:33N 67°17' E 014°23'0 0.0
2014-Sep-07 16:33N 67°17' E 014°23'0 0.0
2014-Sep-07 15:33N 67°17' E 014°23'0 0.0
2014-Sep-07 14:33N 67°17' E 014°23'0 0.0
2014-Sep-07 13:33N 67°17' E 014°23'0 0.0
2014-Sep-07 12:33N 67°17' E 014°23'0 0.0
2014-Sep-07 11:33N 67°17' E 014°23'0 0.0
2014-Sep-07 10:33N 67°17' E 014°23'0 0.0
2014-Sep-07 09:33N 67°17' E 014°23'0 0.0
2014-Sep-07 08:33N 67°17' E 014°23'0 0.0
2014-Sep-07 07:33N 67°17' E 014°23'0 0.0
2014-Sep-07 06:33N 67°17' E 014°23'0 0.0
2014-Sep-07 05:33N 67°17' E 014°23'0 0.0
2014-Sep-07 04:33N 67°17' E 014°23'0 0.0
2014-Sep-07 03:30N 67°17' E 014°23'0 0.0
2014-Sep-07 02:33N 67°17' E 014°23'0 0.0
2014-Sep-07 01:33N 67°17' E 014°23'0 0.0
2014-Sep-07 00:33N 67°17' E 014°23'0 0.0
2014-Sep-06 23:33N 67°17' E 014°23'0 0.0
2014-Sep-06 22:30N 67°17' E 014°23'0 0.0
2014-Sep-06 21:33N 67°17' E 014°23'0 0.0
2014-Sep-06 20:33N 67°17' E 014°23'0 0.0
2014-Sep-06 19:33N 67°17' E 014°23'0 0.0
2014-Sep-06 18:33N 67°17' E 014°23'0 0.0
2014-Sep-06 17:33N 67°17' E 014°23'0 0.0
2014-Sep-06 16:33N 67°17' E 014°23'  

Dump ship's entire track history